Time;durP1;ratioP1;P1;durP2;ratioP2;P2;SDS_P1;SDS_P2;PMS_P1;PMS_P2;Temp;Humidity;BMP_temperature;BMP_pressure;BME280_temperature;BME280_humidity;BME280_pressure;Samples;Min_cycle;Max_cycle;Signal;HPM_P1;HPM_P2
2022/03/07 00:01:25;;;;;;;20.25;15.00;;;;;;;;;;5096479;28;20194;-67
2022/03/07 00:03:52;;;;;;;17.13;13.75;;;;;;;;;;5095965;28;20634;-68
2022/03/07 00:06:19;;;;;;;24.77;15.45;;;;;;;;;;5095545;28;20232;-68
2022/03/07 00:08:46;;;;;;;21.05;15.38;;;;;;;;;;5095443;28;20258;-67
2022/03/07 00:11:14;;;;;;;17.90;13.15;;;;;;;;;;5095656;28;20312;-68
2022/03/07 00:13:41;;;;;;;18.95;13.90;;;;;;;;;;5095730;28;20190;-67
2022/03/07 00:16:09;;;;;;;18.08;13.32;;;;;;;;;;5095414;28;20758;-67
2022/03/07 00:18:37;;;;;;;16.63;14.10;;;;;;;;;;5095504;28;20623;-67
2022/03/07 00:21:05;;;;;;;17.63;12.82;;;;;;;;;;5095580;28;20193;-67
2022/03/07 00:23:32;;;;;;;18.48;13.38;;;;;;;;;;5095472;28;20276;-67
2022/03/07 00:26:00;;;;;;;17.30;14.07;;;;;;;;;;5095248;28;20650;-67
2022/03/07 00:28:27;;;;;;;14.70;13.15;;;;;;;;;;5095072;28;20201;-66
2022/03/07 00:30:54;;;;;;;21.02;14.25;;;;;;;;;;5095385;28;20243;-67
2022/03/07 00:33:23;;;;;;;15.65;12.88;;;;;;;;;;5095292;28;20274;-68
2022/03/07 00:35:50;;;;;;;20.27;13.48;;;;;;;;;;5095927;28;20250;-67
2022/03/07 00:38:18;;;;;;;18.98;14.23;;;;;;;;;;5095323;28;20304;-67
2022/03/07 00:40:45;;;;;;;19.98;13.98;;;;;;;;;;5094815;28;20197;-67
2022/03/07 00:43:12;;;;;;;18.40;14.43;;;;;;;;;;5095098;28;20276;-67
2022/03/07 00:45:39;;;;;;;22.00;14.05;;;;;;;;;;5095364;28;20201;-68
2022/03/07 00:48:07;;;;;;;17.25;14.40;;;;;;;;;;5095079;28;20284;-67
2022/03/07 00:50:35;;;;;;;16.50;12.38;;;;;;;;;;5095035;28;20572;-68
2022/03/07 00:53:03;;;;;;;15.63;12.60;;;;;;;;;;5094563;28;20233;-67
2022/03/07 00:55:30;;;;;;;16.08;12.93;;;;;;;;;;5094647;28;20225;-67
2022/03/07 00:57:57;;;;;;;13.52;12.10;;;;;;;;;;5093607;28;20288;-67
2022/03/07 01:00:24;;;;;;;16.88;13.38;;;;;;;;;;5094944;28;20193;-67
2022/03/07 01:02:51;;;;;;;15.93;14.13;;;;;;;;;;5094737;28;20539;-67
2022/03/07 01:05:19;;;;;;;17.77;12.52;;;;;;;;;;5094447;28;20204;-66
2022/03/07 01:07:48;;;;;;;15.95;12.60;;;;;;;;;;5094310;28;20199;-67
2022/03/07 01:10:15;;;;;;;20.98;14.10;;;;;;;;;;5094751;28;20301;-67
2022/03/07 01:12:43;;;;;;;18.63;12.55;;;;;;;;;;5095833;28;20278;-67
2022/03/07 01:15:11;;;;;;;16.10;12.82;;;;;;;;;;5094236;28;20202;-67
2022/03/07 01:17:39;;;;;;;16.73;13.20;;;;;;;;;;5094135;28;20202;-67
2022/03/07 01:20:09;;;;;;;15.02;12.77;;;;;;;;;;5094687;28;20590;-67
2022/03/07 01:22:36;;;;;;;19.45;13.15;;;;;;;;;;5094460;28;20318;-66
2022/03/07 01:25:06;;;;;;;13.63;12.23;;;;;;;;;;5094415;28;20224;-67
2022/03/07 01:27:33;;;;;;;15.70;12.73;;;;;;;;;;5094638;28;20197;-67
2022/03/07 01:30:01;;;;;;;16.90;13.07;;;;;;;;;;5094273;28;20225;-67
2022/03/07 01:32:28;;;;;;;19.45;13.02;;;;;;;;;;5094306;28;20200;-67
2022/03/07 01:34:55;;;;;;;19.27;14.25;;;;;;;;;;5094181;28;20484;-67
2022/03/07 01:37:22;;;;;;;17.85;13.68;;;;;;;;;;5094220;28;20879;-67
2022/03/07 01:39:49;;;;;;;15.85;12.30;;;;;;;;;;5093808;28;20316;-66
2022/03/07 01:42:18;;;;;;;18.40;13.85;;;;;;;;;;5094309;28;20267;-67
2022/03/07 01:44:45;;;;;;;18.58;13.50;;;;;;;;;;5094086;28;20243;-68
2022/03/07 01:47:13;;;;;;;15.60;13.85;;;;;;;;;;5093744;28;20729;-66
2022/03/07 01:49:40;;;;;;;16.38;14.65;;;;;;;;;;5093992;28;20197;-67
2022/03/07 01:52:08;;;;;;;20.15;14.60;;;;;;;;;;5094301;28;20653;-68
2022/03/07 01:54:35;;;;;;;18.70;13.63;;;;;;;;;;5094068;28;20620;-67
2022/03/07 01:57:02;;;;;;;16.45;14.57;;;;;;;;;;5094140;28;20229;-67
2022/03/07 01:59:33;;;;;;;18.85;14.60;;;;;;;;;;5093708;28;20213;-67
2022/03/07 02:02:01;;;;;;;17.35;14.98;;;;;;;;;;5093556;28;20185;-66
2022/03/07 02:04:28;;;;;;;17.42;12.90;;;;;;;;;;5093519;28;20232;-68
2022/03/07 02:06:56;;;;;;;16.08;13.88;;;;;;;;;;5093449;28;20229;-68
2022/03/07 02:09:23;;;;;;;17.67;14.00;;;;;;;;;;5093023;28;20193;-67
2022/03/07 02:11:50;;;;;;;16.65;14.27;;;;;;;;;;5094144;28;20221;-67
2022/03/07 02:14:18;;;;;;;16.75;13.60;;;;;;;;;;5093662;28;20247;-68
2022/03/07 02:16:47;;;;;;;17.17;14.00;;;;;;;;;;5094171;28;20225;-67
2022/03/07 02:19:14;;;;;;;19.35;14.23;;;;;;;;;;5093477;28;20708;-67
2022/03/07 02:21:44;;;;;;;19.30;13.80;;;;;;;;;;5093674;28;20199;-67
2022/03/07 02:24:12;;;;;;;20.65;14.15;;;;;;;;;;5093183;28;20286;-68
2022/03/07 02:26:40;;;;;;;18.58;13.52;;;;;;;;;;5093632;28;20201;-66
2022/03/07 02:29:08;;;;;;;17.98;12.60;;;;;;;;;;5093528;28;20274;-67
2022/03/07 02:31:36;;;;;;;16.60;12.80;;;;;;;;;;5093715;28;20221;-66
2022/03/07 02:34:03;;;;;;;20.40;13.10;;;;;;;;;;5093905;28;20251;-67
2022/03/07 02:36:31;;;;;;;19.83;13.10;;;;;;;;;;5093182;28;20292;-67
2022/03/07 02:38:58;;;;;;;17.77;13.55;;;;;;;;;;5093548;28;20217;-66
2022/03/07 02:41:27;;;;;;;24.40;13.73;;;;;;;;;;5093300;28;20280;-72
2022/03/07 02:43:54;;;;;;;16.55;12.40;;;;;;;;;;5093050;28;20189;-68
2022/03/07 02:46:21;;;;;;;18.60;14.25;;;;;;;;;;5093616;28;20229;-67
2022/03/07 02:48:48;;;;;;;17.92;12.80;;;;;;;;;;5093727;28;20229;-67
2022/03/07 02:51:16;;;;;;;13.57;11.75;;;;;;;;;;5093546;28;20196;-67
2022/03/07 02:53:43;;;;;;;15.98;12.32;;;;;;;;;;5093297;28;20225;-67
2022/03/07 02:56:10;;;;;;;17.10;13.50;;;;;;;;;;5093563;28;20194;-67
2022/03/07 02:58:39;;;;;;;14.35;12.57;;;;;;;;;;5093318;28;20194;-69
2022/03/07 03:01:06;;;;;;;16.77;13.25;;;;;;;;;;5092992;28;20194;-68
2022/03/07 03:03:33;;;;;;;16.23;13.25;;;;;;;;;;5093453;28;20199;-67
2022/03/07 03:06:01;;;;;;;18.13;13.70;;;;;;;;;;5093338;28;20281;-67
2022/03/07 03:08:28;;;;;;;16.35;13.60;;;;;;;;;;5093031;28;20730;-67
2022/03/07 03:10:57;;;;;;;19.52;14.20;;;;;;;;;;5093369;28;20306;-68
2022/03/07 03:13:24;;;;;;;15.60;12.77;;;;;;;;;;5092954;28;20194;-67
2022/03/07 03:15:54;;;;;;;19.83;13.40;;;;;;;;;;5093287;28;20218;-67
2022/03/07 03:18:21;;;;;;;16.27;13.23;;;;;;;;;;5093171;28;20300;-67
2022/03/07 03:20:50;;;;;;;19.40;14.57;;;;;;;;;;5094135;28;20217;-67
2022/03/07 03:23:17;;;;;;;16.23;13.45;;;;;;;;;;5096773;28;20291;-67
2022/03/07 03:25:44;;;;;;;17.60;13.60;;;;;;;;;;5096383;28;20197;-68
2022/03/07 03:28:12;;;;;;;17.77;13.40;;;;;;;;;;5096392;28;20232;-68
2022/03/07 03:30:39;;;;;;;15.65;13.50;;;;;;;;;;5096860;28;20567;-68
2022/03/07 03:33:08;;;;;;;17.42;14.75;;;;;;;;;;5096779;28;20220;-66
2022/03/07 03:35:36;;;;;;;14.35;12.85;;;;;;;;;;5096168;28;20724;-68
2022/03/07 03:38:03;;;;;;;14.30;12.40;;;;;;;;;;5096188;28;20197;-68
2022/03/07 03:40:31;;;;;;;19.52;13.55;;;;;;;;;;5096749;28;20230;-68
2022/03/07 03:42:58;;;;;;;18.23;13.45;;;;;;;;;;5096098;28;20284;-67
2022/03/07 03:45:25;;;;;;;17.75;12.80;;;;;;;;;;5096262;28;20233;-69
2022/03/07 03:47:53;;;;;;;17.50;13.25;;;;;;;;;;5095979;28;20194;-67
2022/03/07 03:50:21;;;;;;;16.13;13.10;;;;;;;;;;5096187;28;20288;-67
2022/03/07 03:52:48;;;;;;;17.95;12.10;;;;;;;;;;5096257;28;20225;-67
2022/03/07 03:55:16;;;;;;;18.42;12.23;;;;;;;;;;5095739;28;20229;-68
2022/03/07 03:57:44;;;;;;;19.15;13.02;;;;;;;;;;5095785;28;20194;-67
2022/03/07 04:00:13;;;;;;;17.23;12.85;;;;;;;;;;5095558;28;20304;-68
2022/03/07 04:02:42;;;;;;;13.55;11.43;;;;;;;;;;5095903;28;20197;-67
2022/03/07 04:05:10;;;;;;;15.48;12.80;;;;;;;;;;5095896;28;20288;-68
2022/03/07 04:07:38;;;;;;;15.63;13.60;;;;;;;;;;5095880;28;20240;-67
2022/03/07 04:10:06;;;;;;;16.70;14.65;;;;;;;;;;5095861;28;20639;-66
2022/03/07 04:12:33;;;;;;;28.08;15.73;;;;;;;;;;5095941;28;20739;-67
2022/03/07 04:15:02;;;;;;;19.50;13.80;;;;;;;;;;5095663;28;20209;-68
2022/03/07 04:17:29;;;;;;;20.30;14.07;;;;;;;;;;5095441;28;20233;-66
2022/03/07 04:19:56;;;;;;;16.75;14.95;;;;;;;;;;5095540;28;20270;-67
2022/03/07 04:22:24;;;;;;;14.15;12.30;;;;;;;;;;5096373;28;20194;-66
2022/03/07 04:24:52;;;;;;;17.90;14.27;;;;;;;;;;5096070;28;20205;-66
2022/03/07 04:27:19;;;;;;;16.83;13.48;;;;;;;;;;5095599;28;20197;-66
2022/03/07 04:29:47;;;;;;;18.95;13.27;;;;;;;;;;5095208;28;20207;-68
2022/03/07 04:32:14;;;;;;;15.15;12.93;;;;;;;;;;5095270;28;20201;-67
2022/03/07 04:34:41;;;;;;;18.17;13.05;;;;;;;;;;5096365;28;20193;-68
2022/03/07 04:37:08;;;;;;;15.18;11.95;;;;;;;;;;5094966;28;20197;-66
2022/03/07 04:39:36;;;;;;;16.80;13.23;;;;;;;;;;5095395;28;20312;-66
2022/03/07 04:42:05;;;;;;;18.05;12.15;;;;;;;;;;5094853;28;20239;-66
2022/03/07 04:44:32;;;;;;;14.80;12.05;;;;;;;;;;5095187;28;20194;-67
2022/03/07 04:47:00;;;;;;;19.80;12.63;;;;;;;;;;5095068;28;20248;-67
2022/03/07 04:49:27;;;;;;;14.73;11.90;;;;;;;;;;5095145;28;20198;-66
2022/03/07 04:51:54;;;;;;;16.25;13.20;;;;;;;;;;5095680;28;20248;-67
2022/03/07 04:54:21;;;;;;;15.77;12.55;;;;;;;;;;5095056;28;20196;-68
2022/03/07 04:56:50;;;;;;;15.27;12.10;;;;;;;;;;5094939;28;20236;-67
2022/03/07 04:59:19;;;;;;;14.35;12.07;;;;;;;;;;5094850;28;20196;-67
2022/03/07 05:01:46;;;;;;;16.77;13.55;;;;;;;;;;5094485;28;20289;-67
2022/03/07 05:04:13;;;;;;;13.50;11.50;;;;;;;;;;5094892;28;20553;-67
2022/03/07 05:06:41;;;;;;;17.48;12.90;;;;;;;;;;5094735;28;20229;-67
2022/03/07 05:09:08;;;;;;;19.63;14.07;;;;;;;;;;5094770;28;20250;-68
2022/03/07 05:11:35;;;;;;;15.63;12.30;;;;;;;;;;5094575;28;20721;-67
2022/03/07 05:14:03;;;;;;;17.75;12.90;;;;;;;;;;5094958;28;20605;-67
2022/03/07 05:16:31;;;;;;;20.17;13.35;;;;;;;;;;5094533;28;20204;-67
2022/03/07 05:18:58;;;;;;;16.02;12.30;;;;;;;;;;5094505;28;20217;-67
2022/03/07 05:21:26;;;;;;;20.63;13.05;;;;;;;;;;5094947;28;20252;-67
2022/03/07 05:23:53;;;;;;;17.45;13.35;;;;;;;;;;5091435;28;20277;-66
2022/03/07 05:26:20;;;;;;;13.98;11.95;;;;;;;;;;5093709;28;20193;-67
2022/03/07 05:28:47;;;;;;;25.60;13.65;;;;;;;;;;5094179;28;20616;-66
2022/03/07 05:31:15;;;;;;;14.82;11.88;;;;;;;;;;5093456;28;20204;-66
2022/03/07 05:33:43;;;;;;;16.25;12.43;;;;;;;;;;5093717;28;20224;-67
2022/03/07 05:36:11;;;;;;;14.88;13.13;;;;;;;;;;5093609;28;20229;-67
2022/03/07 05:38:38;;;;;;;16.30;13.25;;;;;;;;;;5093421;28;20201;-68
2022/03/07 05:41:05;;;;;;;14.98;12.40;;;;;;;;;;5093616;28;20303;-67
2022/03/07 05:43:34;;;;;;;16.30;13.32;;;;;;;;;;5093199;28;20190;-67
2022/03/07 05:46:01;;;;;;;15.15;13.50;;;;;;;;;;5093239;28;20193;-67
2022/03/07 05:48:28;;;;;;;16.42;12.20;;;;;;;;;;5093772;28;20283;-67
2022/03/07 05:50:57;;;;;;;16.77;14.27;;;;;;;;;;5094095;28;20642;-67
2022/03/07 05:53:24;;;;;;;14.10;12.07;;;;;;;;;;5093883;28;20643;-67
2022/03/07 05:55:52;;;;;;;14.80;13.05;;;;;;;;;;5094101;28;20216;-66
2022/03/07 05:58:19;;;;;;;17.50;12.70;;;;;;;;;;5093909;28;20285;-67
2022/03/07 06:00:47;;;;;;;18.42;13.02;;;;;;;;;;5094094;28;20221;-67
2022/03/07 06:03:14;;;;;;;17.35;13.55;;;;;;;;;;5093740;28;20297;-67
2022/03/07 06:05:41;;;;;;;16.33;12.93;;;;;;;;;;5093092;28;20194;-67
2022/03/07 06:08:10;;;;;;;25.77;14.55;;;;;;;;;;5093342;28;20193;-68
2022/03/07 06:10:37;;;;;;;18.20;13.70;;;;;;;;;;5093619;28;20283;-68
2022/03/07 06:13:04;;;;;;;17.27;13.45;;;;;;;;;;5093948;28;20550;-67
2022/03/07 06:15:32;;;;;;;17.15;14.13;;;;;;;;;;5093744;28;20656;-67
2022/03/07 06:17:59;;;;;;;14.07;11.65;;;;;;;;;;5093728;28;20618;-67
2022/03/07 06:20:27;;;;;;;17.17;13.90;;;;;;;;;;5093272;28;20224;-68
2022/03/07 06:22:54;;;;;;;16.27;13.10;;;;;;;;;;5093645;28;20266;-68
2022/03/07 06:25:23;;;;;;;14.55;13.02;;;;;;;;;;5093342;28;20193;-67
2022/03/07 06:27:50;;;;;;;19.88;12.52;;;;;;;;;;5093129;28;20255;-68
2022/03/07 06:30:18;;;;;;;16.90;12.80;;;;;;;;;;5093230;28;20651;-68
2022/03/07 06:32:45;;;;;;;19.98;14.23;;;;;;;;;;5093307;28;20257;-67
2022/03/07 06:35:12;;;;;;;19.00;14.15;;;;;;;;;;5093097;28;20647;-67
2022/03/07 06:37:40;;;;;;;17.58;13.60;;;;;;;;;;5093445;28;20217;-68
2022/03/07 06:40:08;;;;;;;18.55;13.68;;;;;;;;;;5093440;28;20217;-68
2022/03/07 06:42:36;;;;;;;16.88;13.55;;;;;;;;;;5092999;28;20197;-68
2022/03/07 06:45:04;;;;;;;13.93;12.30;;;;;;;;;;5093377;28;20600;-68
2022/03/07 06:47:31;;;;;;;17.98;14.10;;;;;;;;;;5092805;28;20229;-68
2022/03/07 06:49:58;;;;;;;17.83;13.45;;;;;;;;;;5093391;28;20197;-68
2022/03/07 06:52:26;;;;;;;16.95;12.88;;;;;;;;;;5092928;28;20201;-67
2022/03/07 06:54:53;;;;;;;19.05;13.43;;;;;;;;;;5093094;28;20200;-68
2022/03/07 06:57:21;;;;;;;22.13;14.20;;;;;;;;;;5097040;28;20260;-67
2022/03/07 06:59:50;;;;;;;19.95;12.65;;;;;;;;;;5097564;28;20189;-68
2022/03/07 07:02:17;;;;;;;18.15;13.57;;;;;;;;;;5097232;28;20362;-67
2022/03/07 07:04:44;;;;;;;15.32;12.95;;;;;;;;;;5097590;28;20193;-68
2022/03/07 07:07:12;;;;;;;19.80;13.68;;;;;;;;;;5096649;28;20200;-68
2022/03/07 07:09:39;;;;;;;18.13;12.70;;;;;;;;;;5097013;28;20553;-68
2022/03/07 07:12:07;;;;;;;15.50;13.73;;;;;;;;;;5096917;28;20217;-67
2022/03/07 07:14:34;;;;;;;14.70;12.98;;;;;;;;;;5097000;28;20592;-68
2022/03/07 07:17:03;;;;;;;20.40;12.80;;;;;;;;;;5096812;28;20356;-67
2022/03/07 07:19:30;;;;;;;20.88;15.27;;;;;;;;;;5097390;28;20333;-67
2022/03/07 07:21:58;;;;;;;16.95;13.15;;;;;;;;;;5096787;28;20548;-67
2022/03/07 07:24:25;;;;;;;15.48;12.73;;;;;;;;;;5096656;28;20265;-68
2022/03/07 07:26:52;;;;;;;16.52;13.88;;;;;;;;;;5096411;28;20193;-68
2022/03/07 07:29:19;;;;;;;15.10;13.40;;;;;;;;;;5096286;28;20194;-68
2022/03/07 07:31:47;;;;;;;14.63;13.02;;;;;;;;;;5097258;28;20280;-68
2022/03/07 07:34:15;;;;;;;17.92;14.00;;;;;;;;;;5096194;28;20200;-68
2022/03/07 07:36:43;;;;;;;21.65;12.85;;;;;;;;;;5096511;28;20194;-67
2022/03/07 07:39:10;;;;;;;16.20;12.77;;;;;;;;;;5096231;28;20190;-68
2022/03/07 07:41:37;;;;;;;17.17;13.13;;;;;;;;;;5096158;28;20688;-68
2022/03/07 07:44:05;;;;;;;24.23;13.45;;;;;;;;;;5096204;28;20198;-68
2022/03/07 07:46:32;;;;;;;14.15;11.88;;;;;;;;;;5096067;28;20225;-68
2022/03/07 07:48:59;;;;;;;15.85;12.63;;;;;;;;;;5096098;28;20218;-68
2022/03/07 07:51:28;;;;;;;20.95;11.80;;;;;;;;;;5095891;28;20663;-68
2022/03/07 07:53:55;;;;;;;15.15;11.10;;;;;;;;;;5096146;28;20197;-67
2022/03/07 07:56:23;;;;;;;12.93;11.30;;;;;;;;;;5096429;28;20278;-68
2022/03/07 07:58:50;;;;;;;14.95;10.80;;;;;;;;;;5095773;28;20200;-68
2022/03/07 08:01:17;;;;;;;14.95;11.77;;;;;;;;;;5096340;28;20217;-67
2022/03/07 08:03:44;;;;;;;12.13;10.82;;;;;;;;;;5095910;28;20277;-68
2022/03/07 08:06:11;;;;;;;14.35;11.63;;;;;;;;;;5095246;28;20290;-69
2022/03/07 08:08:40;;;;;;;12.70;11.00;;;;;;;;;;5095524;28;20696;-67
2022/03/07 08:11:07;;;;;;;17.60;11.50;;;;;;;;;;5095931;28;20328;-68
2022/03/07 08:13:35;;;;;;;13.00;11.63;;;;;;;;;;5095718;28;20225;-68
2022/03/07 08:16:02;;;;;;;11.75;10.48;;;;;;;;;;5095797;28;20190;-69
2022/03/07 08:18:29;;;;;;;13.27;11.20;;;;;;;;;;5095336;28;20226;-68
2022/03/07 08:20:59;;;;;;;15.57;11.43;;;;;;;;;;5096119;28;20306;-67
2022/03/07 08:23:27;;;;;;;17.95;11.07;;;;;;;;;;5095415;28;20598;-68
2022/03/07 08:25:55;;;;;;;13.55;10.77;;;;;;;;;;5095292;28;20284;-68
2022/03/07 08:28:23;;;;;;;12.40;11.10;;;;;;;;;;5095789;28;20618;-67
2022/03/07 08:30:51;;;;;;;14.40;10.15;;;;;;;;;;5095180;28;20212;-67
2022/03/07 08:33:18;;;;;;;15.23;10.90;;;;;;;;;;5095340;28;20277;-68
2022/03/07 08:35:46;;;;;;;13.52;10.93;;;;;;;;;;5095439;28;20223;-68
2022/03/07 08:38:13;;;;;;;12.95;11.32;;;;;;;;;;5095392;28;20648;-67
2022/03/07 08:40:40;;;;;;;14.95;10.85;;;;;;;;;;5095133;28;20630;-69
2022/03/07 08:43:09;;;;;;;14.70;11.00;;;;;;;;;;5094892;28;20198;-68
2022/03/07 08:45:36;;;;;;;11.45;10.30;;;;;;;;;;5094948;28;20702;-67
2022/03/07 08:48:03;;;;;;;10.35;9.35;;;;;;;;;;5094829;28;20298;-68
2022/03/07 08:50:30;;;;;;;13.80;9.93;;;;;;;;;;5095012;28;20197;-68
2022/03/07 08:52:58;;;;;;;10.82;9.75;;;;;;;;;;5094656;28;20204;-68
2022/03/07 08:55:25;;;;;;;11.82;9.25;;;;;;;;;;5094852;28;20286;-68
2022/03/07 08:57:52;;;;;;;11.43;9.40;;;;;;;;;;5094819;28;20286;-68
2022/03/07 09:00:21;;;;;;;20.70;9.60;;;;;;;;;;5094658;28;20229;-68
2022/03/07 09:02:48;;;;;;;10.30;8.65;;;;;;;;;;5095091;28;20230;-67
2022/03/07 09:05:16;;;;;;;15.45;9.82;;;;;;;;;;5094902;28;20225;-67
2022/03/07 09:07:43;;;;;;;13.48;10.43;;;;;;;;;;5095436;28;20200;-68
2022/03/07 09:10:11;;;;;;;9.52;8.63;;;;;;;;;;5094559;28;20227;-68
2022/03/07 09:12:38;;;;;;;11.25;8.32;;;;;;;;;;5094874;28;20229;-69
2022/03/07 09:15:06;;;;;;;9.55;7.65;;;;;;;;;;5094900;28;20193;-68
2022/03/07 09:17:35;;;;;;;13.65;8.40;;;;;;;;;;5094341;28;20614;-68
2022/03/07 09:20:02;;;;;;;9.20;8.05;;;;;;;;;;5094181;28;20251;-67
2022/03/07 09:22:29;;;;;;;8.60;7.80;;;;;;;;;;5094125;28;20305;-68
2022/03/07 09:24:57;;;;;;;8.82;7.78;;;;;;;;;;5094274;28;20235;-68
2022/03/07 09:27:24;;;;;;;10.98;7.80;;;;;;;;;;5094008;28;20288;-68
2022/03/07 09:29:51;;;;;;;8.50;7.78;;;;;;;;;;5094233;28;20195;-68
2022/03/07 09:32:18;;;;;;;9.30;8.40;;;;;;;;;;5094354;28;20203;-67
2022/03/07 09:34:47;;;;;;;9.45;8.55;;;;;;;;;;5094123;28;20289;-67
2022/03/07 09:37:14;;;;;;;10.93;7.85;;;;;;;;;;5093814;28;20285;-67
2022/03/07 09:39:42;;;;;;;8.88;7.68;;;;;;;;;;5094110;28;20234;-67
2022/03/07 09:42:09;;;;;;;8.65;7.85;;;;;;;;;;5093765;28;20675;-67
2022/03/07 09:44:37;;;;;;;8.15;7.38;;;;;;;;;;5093663;28;20190;-68
2022/03/07 09:47:04;;;;;;;10.07;7.78;;;;;;;;;;5094022;28;20502;-68
2022/03/07 09:49:32;;;;;;;9.50;8.18;;;;;;;;;;5093900;28;20241;-67
2022/03/07 09:52:01;;;;;;;8.95;7.57;;;;;;;;;;5093604;28;20234;-67
2022/03/07 09:54:28;;;;;;;9.98;7.65;;;;;;;;;;5093607;28;20195;-67
2022/03/07 09:56:56;;;;;;;8.82;7.93;;;;;;;;;;5093556;28;20196;-68
2022/03/07 09:59:23;;;;;;;7.93;6.93;;;;;;;;;;5093625;28;20751;-67
2022/03/07 10:02:00;;;;;;;9.32;6.95;;;;;;;;;;5093676;28;20214;-68
2022/03/07 10:04:27;;;;;;;7.68;6.97;;;;;;;;;;5093482;28;20278;-68
2022/03/07 10:06:55;;;;;;;6.88;6.22;;;;;;;;;;5093810;28;20196;-67
2022/03/07 10:09:25;;;;;;;10.13;7.38;;;;;;;;;;5093337;28;20309;-68
2022/03/07 10:11:53;;;;;;;7.95;6.80;;;;;;;;;;5093556;28;20597;-67
2022/03/07 10:14:30;;;;;;;7.00;6.05;;;;;;;;;;5093598;28;20233;-68
2022/03/07 10:16:57;;;;;;;8.50;5.68;;;;;;;;;;5093588;28;20265;-67
2022/03/07 10:19:25;;;;;;;12.18;6.93;;;;;;;;;;5093692;28;20233;-67
2022/03/07 10:21:53;;;;;;;7.15;6.43;;;;;;;;;;5093142;28;20218;-67
2022/03/07 10:24:21;;;;;;;10.13;6.45;;;;;;;;;;5093717;28;20194;-68
2022/03/07 10:26:50;;;;;;;7.80;5.88;;;;;;;;;;5093543;28;20199;-67
2022/03/07 10:29:17;;;;;;;6.45;5.85;;;;;;;;;;5093413;28;20201;-68
2022/03/07 10:31:47;;;;;;;5.55;5.00;;;;;;;;;;5097777;28;20305;-69
2022/03/07 10:34:14;;;;;;;8.88;5.00;;;;;;;;;;5098823;28;20193;-68
2022/03/07 10:36:43;;;;;;;6.03;5.22;;;;;;;;;;5097949;28;20245;-67
2022/03/07 10:39:10;;;;;;;6.97;6.28;;;;;;;;;;5097528;28;20280;-67
2022/03/07 10:41:39;;;;;;;8.07;6.32;;;;;;;;;;5096806;28;20318;-67
2022/03/07 10:44:13;;;;;;;7.68;6.50;;;;;;;;;;5097046;28;20659;-67
2022/03/07 10:46:41;;;;;;;6.47;5.85;;;;;;;;;;5097400;28;20224;-68
2022/03/07 10:49:09;;;;;;;9.25;5.82;;;;;;;;;;5097438;28;20190;-68
2022/03/07 10:51:36;;;;;;;6.85;6.13;;;;;;;;;;5097527;28;20305;-67
2022/03/07 10:54:08;;;;;;;7.60;6.63;;;;;;;;;;5097267;28;20201;-68
2022/03/07 10:56:36;;;;;;;9.70;7.60;;;;;;;;;;5096905;28;20278;-67
2022/03/07 10:59:11;;;;;;;8.55;7.25;;;;;;;;;;5097223;28;20196;-67
2022/03/07 11:01:40;;;;;;;7.10;6.50;;;;;;;;;;5096724;28;20203;-67
2022/03/07 11:04:07;;;;;;;9.55;5.70;;;;;;;;;;5097097;28;20216;-67
2022/03/07 11:06:35;;;;;;;7.05;6.35;;;;;;;;;;5096598;28;20197;-67
2022/03/07 11:09:02;;;;;;;6.72;6.13;;;;;;;;;;5097093;28;20625;-67
2022/03/07 11:11:29;;;;;;;7.30;6.57;;;;;;;;;;5096199;28;20286;-67
2022/03/07 11:13:57;;;;;;;8.25;6.93;;;;;;;;;;5096273;28;20247;-67
2022/03/07 11:16:25;;;;;;;7.20;6.50;;;;;;;;;;5096482;28;20198;-68
2022/03/07 11:18:54;;;;;;;6.57;5.70;;;;;;;;;;5096549;28;20246;-67
2022/03/07 11:21:22;;;;;;;6.55;5.95;;;;;;;;;;5096301;28;20245;-67
2022/03/07 11:23:50;;;;;;;7.50;6.70;;;;;;;;;;5096505;28;20229;-68
2022/03/07 11:26:20;;;;;;;6.95;6.25;;;;;;;;;;5096291;28;20196;-68
2022/03/07 11:28:51;;;;;;;9.73;7.65;;;;;;;;;;5096727;28;20218;-67
2022/03/07 11:31:21;;;;;;;8.05;7.25;;;;;;;;;;5096795;28;20526;-68
2022/03/07 11:33:52;;;;;;;6.88;6.28;;;;;;;;;;5096570;28;20667;-67
2022/03/07 11:36:22;;;;;;;7.18;6.47;;;;;;;;;;5096854;28;20198;-68
2022/03/07 11:38:53;;;;;;;14.27;7.85;;;;;;;;;;5096119;28;20237;-68
2022/03/07 11:41:24;;;;;;;7.95;7.25;;;;;;;;;;5095854;28;20236;-68
2022/03/07 11:43:52;;;;;;;7.10;6.45;;;;;;;;;;5096257;28;20305;-67
2022/03/07 11:46:24;;;;;;;7.70;6.90;;;;;;;;;;5096155;28;20606;-67
2022/03/07 11:48:51;;;;;;;11.30;7.07;;;;;;;;;;5095988;28;20680;-68
2022/03/07 11:51:20;;;;;;;7.68;6.80;;;;;;;;;;5095838;28;20292;-67
2022/03/07 11:53:48;;;;;;;6.70;5.80;;;;;;;;;;5096541;28;20230;-67
2022/03/07 11:56:19;;;;;;;11.80;6.13;;;;;;;;;;5095772;28;20234;-67
2022/03/07 11:58:50;;;;;;;6.20;5.60;;;;;;;;;;5096180;28;20233;-68
2022/03/07 12:01:18;;;;;;;9.55;7.32;;;;;;;;;;5095616;28;20203;-67
2022/03/07 12:03:47;;;;;;;7.15;6.35;;;;;;;;;;5096071;28;20278;-68
2022/03/07 12:06:15;;;;;;;7.55;6.65;;;;;;;;;;5095879;28;20195;-68
2022/03/07 12:08:47;;;;;;;6.78;6.07;;;;;;;;;;5095977;28;20205;-68
2022/03/07 12:11:28;;;;;;;7.97;7.18;;;;;;;;;;5095621;28;20249;-67
2022/03/07 12:14:02;;;;;;;8.35;6.40;;;;;;;;;;5095487;28;20241;-68
2022/03/07 12:16:30;;;;;;;8.18;6.50;;;;;;;;;;5095576;28;20647;-67
2022/03/07 12:19:06;;;;;;;9.50;6.85;;;;;;;;;;5095888;28;20290;-67
2022/03/07 12:21:34;;;;;;;9.73;6.90;;;;;;;;;;5095705;28;20182;-67
2022/03/07 12:24:02;;;;;;;7.70;6.45;;;;;;;;;;5095267;28;20225;-67
2022/03/07 12:26:30;;;;;;;8.52;7.05;;;;;;;;;;5095113;28;20224;-67
2022/03/07 12:28:57;;;;;;;7.78;6.97;;;;;;;;;;5095537;28;20203;-67
2022/03/07 12:31:25;;;;;;;8.75;6.50;;;;;;;;;;5094970;28;20285;-68
2022/03/07 12:33:52;;;;;;;9.65;6.65;;;;;;;;;;5095382;28;20234;-68
2022/03/07 12:36:19;;;;;;;7.85;7.05;;;;;;;;;;5094985;28;20202;-68
2022/03/07 12:38:47;;;;;;;7.70;6.85;;;;;;;;;;5095259;28;20288;-68
2022/03/07 12:41:16;;;;;;;7.57;6.15;;;;;;;;;;5095408;28;20231;-67
2022/03/07 12:43:44;;;;;;;7.05;6.38;;;;;;;;;;5094734;28;20218;-68
2022/03/07 12:46:13;;;;;;;6.63;6.03;;;;;;;;;;5094799;28;20205;-67
2022/03/07 12:48:43;;;;;;;6.05;5.25;;;;;;;;;;5094697;28;20723;-68
2022/03/07 12:51:11;;;;;;;6.78;6.18;;;;;;;;;;5094840;28;20231;-68
2022/03/07 12:53:47;;;;;;;7.93;7.13;;;;;;;;;;5093917;28;20196;-67
2022/03/07 12:56:15;;;;;;;8.30;6.60;;;;;;;;;;5095340;28;20548;-68
2022/03/07 12:58:46;;;;;;;6.80;6.07;;;;;;;;;;5094712;28;20287;-68
2022/03/07 13:01:13;;;;;;;7.82;6.20;;;;;;;;;;5095446;28;20550;-68
2022/03/07 13:03:41;;;;;;;6.70;6.13;;;;;;;;;;5094672;28;20309;-67
2022/03/07 13:06:08;;;;;;;7.60;6.50;;;;;;;;;;5094412;28;20196;-67
2022/03/07 13:08:45;;;;;;;6.60;6.10;;;;;;;;;;5094199;28;20191;-68
2022/03/07 13:11:13;;;;;;;8.18;6.68;;;;;;;;;;5094397;28;20266;-68
2022/03/07 13:13:46;;;;;;;9.55;7.05;;;;;;;;;;5094567;28;20204;-68
2022/03/07 13:16:23;;;;;;;7.90;6.28;;;;;;;;;;5094269;28;20191;-68
2022/03/07 13:18:57;;;;;;;7.80;7.13;;;;;;;;;;5094630;28;20611;-67
2022/03/07 13:21:24;;;;;;;11.38;6.10;;;;;;;;;;5094705;28;20183;-67
2022/03/07 13:23:52;;;;;;;6.75;5.78;;;;;;;;;;5094229;28;20310;-68
2022/03/07 13:26:22;;;;;;;10.48;7.47;;;;;;;;;;5094679;28;20207;-68
2022/03/07 13:29:02;;;;;;;7.97;6.13;;;;;;;;;;5093982;28;20193;-68
2022/03/07 13:31:29;;;;;;;7.00;5.60;;;;;;;;;;5094462;28;20194;-68
2022/03/07 13:33:59;;;;;;;7.47;6.78;;;;;;;;;;5094112;28;20195;-67
2022/03/07 13:36:39;;;;;;;7.97;6.25;;;;;;;;;;5094260;28;20193;-68
2022/03/07 13:39:06;;;;;;;8.13;6.45;;;;;;;;;;5094155;28;20225;-68
2022/03/07 13:41:33;;;;;;;7.00;6.40;;;;;;;;;;5093647;28;20198;-67
2022/03/07 13:44:09;;;;;;;8.93;5.65;;;;;;;;;;5093656;28;20215;-68
2022/03/07 13:46:37;;;;;;;6.95;6.22;;;;;;;;;;5094089;28;20185;-68
2022/03/07 13:49:05;;;;;;;7.57;6.00;;;;;;;;;;5094620;28;20235;-70
2022/03/07 13:51:32;;;;;;;7.38;6.30;;;;;;;;;;5096640;28;20223;-68
2022/03/07 13:54:00;;;;;;;11.43;6.60;;;;;;;;;;5094269;28;20232;-67
2022/03/07 13:56:27;;;;;;;6.90;5.95;;;;;;;;;;5094102;28;20197;-67
2022/03/07 13:58:55;;;;;;;6.88;6.18;;;;;;;;;;5093367;28;20203;-67
2022/03/07 14:01:30;;;;;;;5.68;5.28;;;;;;;;;;5093821;28;20199;-68
2022/03/07 14:03:57;;;;;;;8.02;6.35;;;;;;;;;;5093524;28;20265;-68
2022/03/07 14:06:25;;;;;;;7.32;6.63;;;;;;;;;;5094201;28;20289;-67
2022/03/07 14:08:53;;;;;;;6.80;6.07;;;;;;;;;;5093203;28;20197;-67
2022/03/07 14:11:20;;;;;;;7.13;6.20;;;;;;;;;;5093691;28;20319;-72
2022/03/07 14:13:48;;;;;;;7.82;6.78;;;;;;;;;;5093535;28;20234;-66
2022/03/07 14:16:16;;;;;;;6.80;6.20;;;;;;;;;;5094035;28;20604;-68
2022/03/07 14:18:45;;;;;;;7.50;6.80;;;;;;;;;;5093778;28;20191;-68
2022/03/07 14:21:13;;;;;;;11.65;7.32;;;;;;;;;;5094457;28;20247;-68
2022/03/07 14:23:40;;;;;;;7.57;6.50;;;;;;;;;;5093152;28;20314;-69
2022/03/07 14:26:07;;;;;;;8.75;6.60;;;;;;;;;;5093357;28;20230;-69
2022/03/07 14:28:35;;;;;;;8.05;6.18;;;;;;;;;;5093472;28;20649;-69
2022/03/07 14:31:02;;;;;;;9.15;6.50;;;;;;;;;;5093687;28;20283;-69